Time;durP1;ratioP1;P1;durP2;ratioP2;P2;SDS_P1;SDS_P2;PMS_P1;PMS_P2;Temp;Humidity;BMP_temperature;BMP_pressure;BME280_temperature;BME280_humidity;BME280_pressure;Samples;Min_cycle;Max_cycle;Signal;HPM_P1;HPM_P2
2022/06/25 00:01:09;;;;;;;20.17;13.93;;;14.60;96.90;;;;;;4988546;28;20446;-78
2022/06/25 00:03:35;;;;;;;20.88;15.38;;;14.70;99.90;;;;;;4983125;28;20026;-77
2022/06/25 00:06:00;;;;;;;24.10;16.02;;;14.70;99.90;;;;;;4979987;28;20030;-77
2022/06/25 00:08:26;;;;;;;24.23;16.60;;;15.00;99.90;;;;;;4977103;28;20023;-78
2022/06/25 00:10:52;;;;;;;28.88;16.15;;;14.90;99.90;;;;;;4985907;28;20114;-78
2022/06/25 00:13:18;;;;;;;22.08;16.88;;;14.80;99.90;;;;;;4988758;28;20057;-78
2022/06/25 00:15:44;;;;;;;26.67;17.65;;;14.90;99.90;;;;;;4987722;28;20029;-78
2022/06/25 00:18:11;;;;;;;24.45;15.70;;;14.90;99.90;;;;;;4974975;28;20023;-77
2022/06/25 00:20:36;;;;;;;23.25;16.27;;;14.80;99.90;;;;;;4974884;28;20106;-77
2022/06/25 00:23:02;;;;;;;23.02;16.70;;;14.60;99.90;;;;;;4974557;28;20446;-78
2022/06/25 00:25:28;;;;;;;23.50;16.60;;;15.20;99.90;;;;;;4988084;28;20106;-78
2022/06/25 00:27:53;;;;;;;27.33;17.48;;;14.90;99.90;;;;;;4982710;28;20228;-78
2022/06/25 00:30:19;;;;;;;27.67;17.67;;;15.00;99.90;;;;;;4993619;28;20379;-79
2022/06/25 00:32:44;;;;;;;29.33;17.55;;;15.10;99.90;;;;;;4980234;28;20384;-78
2022/06/25 00:35:10;;;;;;;25.60;17.10;;;15.00;99.90;;;;;;4974461;28;20098;-78
2022/06/25 00:37:36;;;;;;;27.25;17.45;;;14.90;99.90;;;;;;4978658;28;20030;-78
2022/06/25 00:40:02;;;;;;;27.42;17.20;;;15.10;99.90;;;;;;4983500;28;20636;-78
2022/06/25 00:42:28;;;;;;;28.42;19.33;;;15.00;99.90;;;;;;4974365;28;20027;-78
2022/06/25 00:44:55;;;;;;;27.10;18.23;;;15.20;99.90;;;;;;4974680;28;20027;-78
2022/06/25 00:47:21;;;;;;;29.83;18.17;;;15.00;99.90;;;;;;4975571;28;20098;-78
2022/06/25 00:49:47;;;;;;;26.95;16.85;;;15.20;99.90;;;;;;4987400;28;20130;-78
2022/06/25 00:52:18;;;;;;;27.30;17.23;;;14.90;99.90;;;;;;4974235;28;20031;-78
2022/06/25 00:54:56;;;;;;;24.05;18.00;;;14.80;99.90;;;;;;4974862;28;20027;-78
2022/06/25 00:57:27;;;;;;;29.50;17.63;;;15.00;99.90;;;;;;4974513;28;20360;-78
2022/06/25 00:59:58;;;;;;;27.08;17.67;;;14.90;99.90;;;;;;4968938;28;20065;-78
2022/06/25 01:02:24;;;;;;;25.33;16.83;;;14.80;99.90;;;;;;4964794;28;20086;-78
2022/06/25 01:04:50;;;;;;;27.85;17.35;;;14.70;99.90;;;;;;4978211;28;20027;-78
2022/06/25 01:07:17;;;;;;;27.17;17.85;;;14.70;99.90;;;;;;4978166;28;20450;-78
2022/06/25 01:09:45;;;;;;;29.30;18.33;;;14.80;99.90;;;;;;4977865;28;20022;-78
2022/06/25 01:12:10;;;;;;;29.90;18.63;;;15.00;99.90;;;;;;4975346;28;20382;-78
2022/06/25 01:14:36;;;;;;;27.67;18.10;;;14.80;99.90;;;;;;4966361;28;20078;-78
2022/06/25 01:17:06;;;;;;;28.02;18.42;;;14.90;99.90;;;;;;4977630;28;20027;-78
2022/06/25 01:19:33;;;;;;;26.90;18.63;;;15.00;99.90;;;;;;4977716;28;20054;-78
2022/06/25 01:22:03;;;;;;;34.67;20.00;;;14.90;99.90;;;;;;4977441;28;20038;-78
2022/06/25 01:24:28;;;;;;;28.48;19.45;;;14.90;99.90;;;;;;4959115;28;20026;-78
2022/06/25 01:26:54;;;;;;;27.00;17.42;;;14.90;99.90;;;;;;4968654;28;20625;-78
2022/06/25 01:29:19;;;;;;;28.48;18.85;;;14.90;99.90;;;;;;4977565;28;20019;-78
2022/06/25 01:31:45;;;;;;;25.58;18.95;;;14.90;99.90;;;;;;4977380;28;20367;-78
2022/06/25 01:34:11;;;;;;;26.40;18.65;;;14.80;99.90;;;;;;4977507;28;20038;-78
2022/06/25 01:36:36;;;;;;;25.83;17.58;;;14.80;99.90;;;;;;4977201;28;20034;-78
2022/06/25 01:39:02;;;;;;;28.00;18.10;;;14.80;99.90;;;;;;4977298;28;20541;-78
2022/06/25 01:41:28;;;;;;;29.65;18.67;;;14.60;99.90;;;;;;4977205;28;20418;-78
2022/06/25 01:43:54;;;;;;;27.98;17.65;;;14.60;99.90;;;;;;4977159;28;20031;-78
2022/06/25 01:46:21;;;;;;;25.67;18.83;;;14.70;99.90;;;;;;4967632;28;20498;-78
2022/06/25 01:48:47;;;;;;;28.98;19.27;;;14.80;99.90;;;;;;4977051;28;20033;-78
2022/06/25 01:51:13;;;;;;;27.55;18.90;;;14.70;99.90;;;;;;4976781;28;20027;-78
2022/06/25 01:53:39;;;;;;;25.45;18.08;;;14.90;99.90;;;;;;4977409;28;20027;-77
2022/06/25 01:56:07;;;;;;;27.30;19.52;;;14.80;99.90;;;;;;4964250;28;20340;-77
2022/06/25 01:58:33;;;;;;;27.92;20.20;;;14.90;99.90;;;;;;4976570;28;20062;-78
2022/06/25 02:00:59;;;;;;;29.60;18.65;;;14.90;99.90;;;;;;4976874;28;20074;-77
2022/06/25 02:03:25;;;;;;;27.25;19.15;;;14.70;99.90;;;;;;4976614;28;20077;-77
2022/06/25 02:05:57;;;;;;;27.45;19.23;;;14.70;99.90;;;;;;4976604;28;20026;-77
2022/06/25 02:08:35;;;;;;;28.65;20.35;;;14.70;99.90;;;;;;4976743;28;20023;-77
2022/06/25 02:11:03;;;;;;;27.67;18.88;;;14.80;99.90;;;;;;4976194;28;20062;-77
2022/06/25 02:13:29;;;;;;;28.00;18.65;;;14.80;99.90;;;;;;4976670;28;20395;-78
2022/06/25 02:15:55;;;;;;;25.35;18.48;;;14.70;99.90;;;;;;4976633;28;20531;-77
2022/06/25 02:18:22;;;;;;;29.38;19.73;;;14.60;99.90;;;;;;4976352;28;20091;-78
2022/06/25 02:20:47;;;;;;;28.90;18.65;;;14.70;99.90;;;;;;4976312;28;20026;-77
2022/06/25 02:23:14;;;;;;;29.75;20.00;;;14.70;99.90;;;;;;4976543;28;20081;-77
2022/06/25 02:25:42;;;;;;;28.35;19.42;;;14.80;99.90;;;;;;4963236;28;20546;-77
2022/06/25 02:28:07;;;;;;;27.58;18.88;;;14.70;99.90;;;;;;4976425;28;20025;-78
2022/06/25 02:30:33;;;;;;;28.10;19.23;;;14.70;99.90;;;;;;4974199;28;20102;-78
2022/06/25 02:32:59;;;;;;;25.27;18.00;;;14.60;99.90;;;;;;4964493;28;20112;-78
2022/06/25 02:35:24;;;;;;;21.80;17.63;;;14.60;99.90;;;;;;4976093;28;20081;-78
2022/06/25 02:37:50;;;;;;;31.33;18.85;;;14.60;99.90;;;;;;4963440;28;20034;-78
2022/06/25 02:40:15;;;;;;;24.13;18.10;;;14.70;99.90;;;;;;4968394;28;20027;-78
2022/06/25 02:42:41;;;;;;;28.70;19.88;;;14.60;99.90;;;;;;4975584;28;20058;-78
2022/06/25 02:45:08;;;;;;;32.55;19.58;;;14.60;99.90;;;;;;4975785;28;20030;-77
2022/06/25 02:47:35;;;;;;;23.55;18.05;;;14.50;99.90;;;;;;4975613;28;20173;-77
2022/06/25 02:50:01;;;;;;;26.17;18.10;;;14.60;99.90;;;;;;4975621;28;20101;-77
2022/06/25 02:52:27;;;;;;;28.95;19.20;;;14.60;99.90;;;;;;4975378;28;20114;-78
2022/06/25 02:54:53;;;;;;;27.00;18.05;;;14.80;99.90;;;;;;4975756;28;20029;-77
2022/06/25 03:00:05;;;;;;;25.17;17.92;;;14.60;99.90;;;;;;4974578;28;20160;-78
2022/06/25 03:02:32;;;;;;;25.98;18.85;;;14.60;99.90;;;;;;4974798;28;20023;-77
2022/06/25 03:04:57;;;;;;;25.05;18.27;;;14.50;99.90;;;;;;4974470;28;20420;-78
2022/06/25 03:07:23;;;;;;;28.83;19.13;;;14.60;99.90;;;;;;4974731;28;20102;-78
2022/06/25 03:09:49;;;;;;;25.88;18.92;;;14.70;99.90;;;;;;4974410;28;20076;-78
2022/06/25 03:12:14;;;;;;;26.90;17.83;;;14.60;99.90;;;;;;4974247;28;20035;-78
2022/06/25 03:14:40;;;;;;;24.58;19.05;;;14.60;99.90;;;;;;4974956;28;20019;-78
2022/06/25 03:17:06;;;;;;;25.10;16.98;;;14.70;99.90;;;;;;4974575;28;20087;-78
2022/06/25 03:19:31;;;;;;;23.58;16.70;;;14.70;99.90;;;;;;4974833;28;20027;-78
2022/06/25 03:21:57;;;;;;;22.38;15.82;;;14.70;99.90;;;;;;4974225;28;20717;-78
2022/06/25 03:24:23;;;;;;;22.88;16.98;;;14.70;99.90;;;;;;4965956;28;20471;-78
2022/06/25 03:26:49;;;;;;;24.42;16.02;;;14.70;99.90;;;;;;4975497;28;20023;-78
2022/06/25 03:29:15;;;;;;;20.67;15.65;;;14.70;99.90;;;;;;4976136;28;20046;-78
2022/06/25 03:31:41;;;;;;;20.35;15.52;;;14.90;99.90;;;;;;4985837;28;20027;-78
2022/06/25 03:34:07;;;;;;;19.75;15.23;;;15.00;99.90;;;;;;4980584;28;20100;-78
2022/06/25 03:36:33;;;;;;;19.55;14.75;;;15.10;99.90;;;;;;4981536;28;20455;-78
2022/06/25 03:38:59;;;;;;;20.00;14.95;;;15.10;99.90;;;;;;4974410;28;20041;-78
2022/06/25 03:41:35;;;;;;;19.20;14.63;;;15.10;99.90;;;;;;4965689;28;20049;-78
2022/06/25 03:44:06;;;;;;;17.65;13.25;;;15.20;99.90;;;;;;4973048;28;20027;-78
2022/06/25 03:46:33;;;;;;;23.77;14.05;;;15.20;99.90;;;;;;4974416;28;20023;-78
2022/06/25 03:48:59;;;;;;;17.38;12.98;;;15.30;99.90;;;;;;4974254;28;20018;-78
2022/06/25 03:51:25;;;;;;;18.33;12.85;;;15.40;99.90;;;;;;4973805;28;20093;-78
2022/06/25 03:53:51;;;;;;;15.77;12.77;;;15.50;99.90;;;;;;4973872;28;20035;-78
2022/06/25 03:56:16;;;;;;;17.23;13.00;;;15.50;99.90;;;;;;4974082;28;20434;-78
2022/06/25 03:58:42;;;;;;;19.15;13.20;;;15.60;99.90;;;;;;4961439;28;20098;-78
2022/06/25 04:01:08;;;;;;;17.45;13.15;;;15.70;99.90;;;;;;4986403;28;20026;-78
2022/06/25 04:03:34;;;;;;;18.83;13.13;;;15.80;99.90;;;;;;4974075;28;20366;-79
2022/06/25 04:06:00;;;;;;;17.08;14.15;;;16.30;99.90;;;;;;4973730;28;20493;-78
2022/06/25 04:08:26;;;;;;;17.10;13.60;;;17.50;99.90;;;;;;4973553;28;20023;-78
2022/06/25 04:10:51;;;;;;;15.85;13.63;;;18.80;99.90;;;;;;4973537;28;20030;-78
2022/06/25 04:13:17;;;;;;;17.60;12.30;;;19.70;41.70;;;;;;4973173;28;20065;-78
2022/06/25 04:15:42;;;;;;;15.00;11.88;;;20.10;1.00;;;;;;4973705;28;20027;-78
2022/06/25 04:18:08;;;;;;;15.30;11.25;;;20.80;1.00;;;;;;4973747;28;20027;-79
2022/06/25 04:20:34;;;;;;;17.42;10.60;;;21.20;1.00;;;;;;4973812;28;20037;-79
2022/06/25 04:22:59;;;;;;;12.80;10.57;;;21.90;1.00;;;;;;4973397;28;20038;-79
2022/06/25 04:25:25;;;;;;;11.93;10.00;;;22.20;1.00;;;;;;4973373;28;20407;-78
2022/06/25 04:30:35;;;;;;;12.18;9.45;;;22.90;1.00;;;;;;4973718;28;20077;-79
2022/06/25 04:33:01;;;;;;;13.80;9.80;;;23.50;99.90;;;;;;4973229;28;20419;-79
2022/06/25 04:35:26;;;;;;;10.05;9.00;;;23.30;99.90;;;;;;4988614;28;20467;-79
2022/06/25 04:37:52;;;;;;;9.90;8.90;;;23.50;99.90;;;;;;4977478;28;20058;-78
2022/06/25 04:40:18;;;;;;;10.93;9.32;;;24.70;99.90;;;;;;4967427;28;20027;-79
2022/06/25 04:42:45;;;;;;;10.27;9.27;;;25.10;99.90;;;;;;4977401;28;20023;-79
2022/06/25 04:45:11;;;;;;;10.68;9.13;;;25.30;99.90;;;;;;4977139;28;20044;-79
2022/06/25 04:47:36;;;;;;;10.50;8.95;;;25.70;99.90;;;;;;4977290;28;20073;-77
2022/06/25 04:50:03;;;;;;;9.30;8.43;;;26.10;99.90;;;;;;4976894;28;20106;-79
2022/06/25 04:52:28;;;;;;;10.05;8.68;;;26.50;99.90;;;;;;4986076;28;20034;-79
2022/06/25 04:54:54;;;;;;;11.45;8.57;;;26.70;99.90;;;;;;4997041;28;20014;-79
2022/06/25 04:57:19;;;;;;;9.85;8.30;;;27.50;99.90;;;;;;4990515;28;20055;-78
2022/06/25 04:59:45;;;;;;;8.63;7.82;;;27.90;99.90;;;;;;4977320;28;20030;-79
2022/06/25 05:02:11;;;;;;;9.25;8.30;;;28.80;99.90;;;;;;4977321;28;20050;-79
2022/06/25 05:04:36;;;;;;;10.18;7.97;;;28.30;99.90;;;;;;4977106;28;20063;-79
2022/06/25 05:07:02;;;;;;;10.07;8.05;;;28.70;99.90;;;;;;4971291;28;20455;-79
2022/06/25 05:09:27;;;;;;;11.15;8.18;;;29.60;99.90;;;;;;4957767;28;20027;-79
2022/06/25 05:11:53;;;;;;;8.85;7.32;;;30.40;99.90;;;;;;4957608;28;20027;-79
2022/06/25 05:14:18;;;;;;;9.35;8.00;;;30.80;99.90;;;;;;4960028;28;20363;-77
2022/06/25 05:16:47;;;;;;;8.32;7.53;;;31.50;99.90;;;;;;4976832;28;20081;-77
2022/06/25 05:19:12;;;;;;;9.55;7.80;;;32.20;99.90;;;;;;4976466;28;20077;-78
2022/06/25 05:21:38;;;;;;;7.53;6.82;;;33.00;99.90;;;;;;4976413;28;20026;-78
2022/06/25 05:24:05;;;;;;;8.23;6.93;;;32.70;99.90;;;;;;4976552;28;20023;-78
2022/06/25 05:26:31;;;;;;;8.93;7.22;;;32.70;99.90;;;;;;4964896;28;20019;-78
2022/06/25 05:28:56;;;;;;;7.20;6.55;;;33.50;99.90;;;;;;4969090;28;20037;-78
2022/06/25 05:31:22;;;;;;;9.10;7.10;;;33.80;99.90;;;;;;4958323;28;20042;-77
2022/06/25 05:33:49;;;;;;;8.80;6.93;;;33.30;99.90;;;;;;4972523;28;20123;-77
2022/06/25 05:36:15;;;;;;;7.43;6.68;;;33.40;99.90;;;;;;4988088;28;20031;-78
2022/06/25 05:38:40;;;;;;;7.07;6.38;;;33.00;99.90;;;;;;4976619;28;20044;-78
2022/06/25 05:41:08;;;;;;;8.07;7.03;;;33.80;99.90;;;;;;4976542;28;20038;-78
2022/06/25 05:43:35;;;;;;;7.18;6.43;;;33.70;99.90;;;;;;4966052;28;20109;-78
2022/06/25 05:46:01;;;;;;;8.95;6.18;;;34.40;99.90;;;;;;4981358;28;20098;-78
2022/06/25 05:48:27;;;;;;;7.28;5.57;;;33.30;99.90;;;;;;4978371;28;20034;-77
2022/06/25 05:50:52;;;;;;;5.70;5.00;;;34.40;99.90;;;;;;4988352;28;20035;-77
2022/06/25 05:53:18;;;;;;;5.57;4.85;;;34.60;99.90;;;;;;4980519;28;20113;-77
2022/06/25 05:55:43;;;;;;;5.65;4.80;;;35.50;99.90;;;;;;4976984;28;20019;-77
2022/06/25 05:58:09;;;;;;;6.57;5.22;;;35.60;99.90;;;;;;4985616;28;20073;-77
2022/06/25 06:00:35;;;;;;;5.53;4.82;;;33.90;99.90;;;;;;4981179;28;20031;-77
2022/06/25 06:03:00;;;;;;;4.93;4.45;;;33.80;99.90;;;;;;4971479;28;20395;-77
2022/06/25 06:05:26;;;;;;;5.40;4.93;;;31.80;99.90;;;;;;4970978;28;20110;-77
2022/06/25 06:07:52;;;;;;;4.75;4.32;;;29.10;99.90;;;;;;4982640;28;20019;-76
2022/06/25 06:10:17;;;;;;;5.35;4.78;;;28.90;99.90;;;;;;4968983;28;20030;-76
2022/06/25 06:12:43;;;;;;;5.97;5.38;;;27.80;99.90;;;;;;4975931;28;20668;-76
2022/06/25 06:15:09;;;;;;;5.40;4.90;;;28.00;99.90;;;;;;4957181;28;20053;-76
2022/06/25 06:17:35;;;;;;;5.45;4.93;;;27.80;99.90;;;;;;4965848;28;20110;-76
2022/06/25 06:20:01;;;;;;;5.25;4.75;;;27.80;99.90;;;;;;4978504;28;20055;-77
2022/06/25 06:22:27;;;;;;;5.40;4.80;;;27.10;99.90;;;;;;4975300;28;20034;-76
2022/06/25 06:24:53;;;;;;;5.53;4.90;;;28.00;99.90;;;;;;4975226;28;20533;-76
2022/06/25 06:27:18;;;;;;;5.22;4.72;;;27.60;99.90;;;;;;4961503;28;20027;-77
2022/06/25 06:29:44;;;;;;;6.15;4.75;;;27.50;99.90;;;;;;4967253;28;20110;-77
2022/06/25 06:32:10;;;;;;;6.63;4.72;;;28.20;99.90;;;;;;4974749;28;20118;-77
2022/06/25 06:34:35;;;;;;;5.60;4.40;;;30.70;99.90;;;;;;4987471;28;20030;-76
2022/06/25 06:37:01;;;;;;;4.75;4.03;;;29.40;99.90;;;;;;4976401;28;20068;-77
2022/06/25 06:39:26;;;;;;;5.40;3.88;;;30.10;99.90;;;;;;4981223;28;20109;-76
2022/06/25 06:41:53;;;;;;;5.43;3.95;;;29.90;99.90;;;;;;4977410;28;20038;-76
2022/06/25 06:44:18;;;;;;;6.80;3.80;;;30.30;99.90;;;;;;4974948;28;20019;-76
2022/06/25 06:46:44;;;;;;;3.50;3.20;;;29.30;99.90;;;;;;4970367;28;20019;-77
2022/06/25 06:49:09;;;;;;;6.45;3.60;;;28.20;99.90;;;;;;4974414;28;20027;-77
2022/06/25 06:51:35;;;;;;;4.70;3.90;;;27.20;99.90;;;;;;4968138;28;20035;-77
2022/06/25 06:54:01;;;;;;;4.13;3.58;;;26.90;99.90;;;;;;4955358;28;20518;-77
2022/06/25 06:56:26;;;;;;;5.03;3.60;;;26.60;99.90;;;;;;4955438;28;20106;-77
2022/06/25 06:58:53;;;;;;;4.88;3.38;;;26.90;99.90;;;;;;4954454;28;20015;-77
2022/06/25 07:01:19;;;;;;;7.70;3.65;;;27.10;99.90;;;;;;4979424;28;20026;-78
2022/06/25 07:03:44;;;;;;;5.95;3.65;;;27.30;99.90;;;;;;4991565;28;20030;-77
2022/06/25 07:06:10;;;;;;;4.35;2.83;;;29.40;99.90;;;;;;4979804;28;20517;-77
2022/06/25 07:08:36;;;;;;;6.80;2.70;;;31.00;99.90;;;;;;4973239;28;20406;-77
2022/06/25 07:11:01;;;;;;;6.90;2.47;;;32.50;99.90;;;;;;4974557;28;20027;-76
2022/06/25 07:13:27;;;;;;;3.05;2.30;;;35.30;99.90;;;;;;4974476;28;20054;-78
2022/06/25 07:15:52;;;;;;;4.78;2.63;;;36.10;99.90;;;;;;4978332;28;20027;-78
2022/06/25 07:18:18;;;;;;;3.95;2.50;;;36.50;99.90;;;;;;4970194;28;20022;-78
2022/06/25 07:20:43;;;;;;;6.45;3.17;;;36.40;99.90;;;;;;4961204;28;20035;-78
2022/06/25 07:23:09;;;;;;;3.53;2.70;;;36.20;99.90;;;;;;4954306;28;20024;-77
2022/06/25 07:25:35;;;;;;;5.22;2.83;;;36.00;99.90;;;;;;4957362;28;20019;-78
2022/06/25 07:28:00;;;;;;;3.70;2.47;;;39.10;99.90;;;;;;4970949;28;20023;-78
2022/06/25 07:30:26;;;;;;;4.68;2.47;;;40.20;99.90;;;;;;4973403;28;20030;-78
2022/06/25 07:32:51;;;;;;;5.93;3.00;;;39.60;99.90;;;;;;4957733;28;20102;-78
2022/06/25 07:35:17;;;;;;;5.13;2.55;;;40.10;99.90;;;;;;4973021;28;20033;-78
2022/06/25 07:37:43;;;;;;;5.55;3.13;;;41.60;99.90;;;;;;4954543;28;20136;-76
2022/06/25 07:40:10;;;;;;;7.10;3.10;;;43.60;99.90;;;;;;4969246;28;20046;-77
2022/06/25 07:42:35;;;;;;;6.80;3.10;;;41.80;99.90;;;;;;4973560;28;20034;-77
2022/06/25 07:45:01;;;;;;;6.63;2.72;;;43.10;99.90;;;;;;4973301;28;20042;-76
2022/06/25 07:47:27;;;;;;;2.58;2.35;;;41.70;99.90;;;;;;4973370;28;20363;-76
2022/06/25 07:52:37;;;;;;;3.25;2.80;;;42.20;99.90;;;;;;4970008;28;20070;-77
2022/06/25 07:55:03;;;;;;;4.35;2.85;;;42.40;99.90;;;;;;4967100;28;20031;-78
2022/06/25 07:57:29;;;;;;;4.50;2.70;;;40.30;99.90;;;;;;4974106;28;20046;-78
2022/06/25 07:59:55;;;;;;;4.43;2.38;;;40.00;99.90;;;;;;4973747;28;20388;-79
2022/06/25 08:02:20;;;;;;;4.10;3.00;;;39.10;99.90;;;;;;4974224;28;20062;-79
2022/06/25 08:04:46;;;;;;;4.57;3.03;;;38.60;99.90;;;;;;4974029;28;20023;-79
2022/06/25 08:07:11;;;;;;;5.25;3.30;;;38.80;99.90;;;;;;4973747;28;20027;-76
2022/06/25 08:09:37;;;;;;;4.40;3.03;;;39.20;99.90;;;;;;4971840;28;20372;-77
2022/06/25 08:12:04;;;;;;;4.13;2.90;;;39.50;99.90;;;;;;4968080;28;20035;-77
2022/06/25 08:14:29;;;;;;;5.30;3.05;;;37.30;99.90;;;;;;4972982;28;20055;-76
2022/06/25 08:16:55;;;;;;;3.42;2.67;;;39.00;99.90;;;;;;4973526;28;20627;-77
2022/06/25 08:19:21;;;;;;;5.07;3.47;;;37.10;99.90;;;;;;4973582;28;20522;-77
2022/06/25 08:21:47;;;;;;;6.88;3.13;;;33.10;99.90;;;;;;4963940;28;20019;-77
2022/06/25 08:24:13;;;;;;;4.32;3.17;;;34.20;99.90;;;;;;4954357;28;20106;-77
2022/06/25 08:26:38;;;;;;;6.18;3.30;;;32.80;99.90;;;;;;4955042;28;20074;-78
2022/06/25 08:29:04;;;;;;;3.78;3.03;;;32.10;99.90;;;;;;4966210;28;20109;-77
2022/06/25 08:31:30;;;;;;;5.22;3.60;;;33.20;99.90;;;;;;4973179;28;20030;-77
2022/06/25 08:33:58;;;;;;;6.13;3.33;;;38.10;99.90;;;;;;4980490;28;20058;-77
2022/06/25 08:36:23;;;;;;;4.88;2.65;;;40.80;99.90;;;;;;4967214;28;20027;-77
2022/06/25 08:38:49;;;;;;;3.72;3.05;;;40.40;99.90;;;;;;4973171;28;20046;-77
2022/06/25 08:41:15;;;;;;;4.28;3.10;;;37.50;99.90;;;;;;4973588;28;20047;-77
2022/06/25 08:43:41;;;;;;;2.97;2.63;;;40.10;99.90;;;;;;4973959;28;20474;-77
2022/06/25 08:46:07;;;;;;;5.68;3.60;;;40.20;99.90;;;;;;4965181;28;20070;-77
2022/06/25 08:48:34;;;;;;;4.45;3.30;;;37.00;99.90;;;;;;4963749;28;20014;-77
2022/06/25 08:51:01;;;;;;;5.00;3.50;;;34.90;99.90;;;;;;4973115;28;20034;-77
2022/06/25 08:53:31;;;;;;;3.97;3.10;;;34.00;99.90;;;;;;4973747;28;20018;-77
2022/06/25 08:55:57;;;;;;;4.05;2.80;;;32.80;99.90;;;;;;4966346;28;20023;-77
2022/06/25 08:58:23;;;;;;;5.18;3.20;;;32.00;99.90;;;;;;4967040;28;20039;-78
2022/06/25 09:00:48;;;;;;;3.50;3.25;;;31.40;99.90;;;;;;4969211;28;20034;-78
2022/06/25 09:03:14;;;;;;;3.92;3.08;;;30.50;99.90;;;;;;4954124;28;20102;-77
2022/06/25 09:05:42;;;;;;;3.78;3.33;;;29.80;99.90;;;;;;4955271;28;20115;-77
2022/06/25 09:08:10;;;;;;;4.60;3.45;;;29.70;99.90;;;;;;4953633;28;20031;-77
2022/06/25 09:10:37;;;;;;;5.72;3.60;;;29.70;99.90;;;;;;4962868;28;20023;-77
2022/06/25 09:13:06;;;;;;;5.80;3.92;;;30.70;99.90;;;;;;4973093;28;20080;-77
2022/06/25 09:15:52;;;;;;;5.78;3.85;;;31.10;99.90;;;;;;4985546;28;20382;-78
2022/06/25 09:18:19;;;;;;;5.35;3.28;;;31.30;99.90;;;;;;4973660;28;20031;-77
2022/06/25 09:20:55;;;;;;;4.57;3.65;;;31.70;99.90;;;;;;4966825;28;20019;-78
2022/06/25 09:23:21;;;;;;;5.20;3.97;;;31.90;99.90;;;;;;4957543;28;20130;-77
2022/06/25 09:26:06;;;;;;;4.45;3.55;;;33.20;99.90;;;;;;4970962;28;20054;-77
2022/06/25 09:28:35;;;;;;;3.63;3.33;;;34.10;99.90;;;;;;4996426;28;20037;-77
2022/06/25 09:31:02;;;;;;;5.75;4.38;;;35.00;99.90;;;;;;4977974;28;20019;-78
2022/06/25 09:33:29;;;;;;;4.72;4.28;;;35.00;99.90;;;;;;4980195;28;20648;-78
2022/06/25 09:35:55;;;;;;;4.65;3.35;;;34.90;99.90;;;;;;4987939;28;20045;-77
2022/06/25 09:38:21;;;;;;;3.67;3.38;;;33.80;99.90;;;;;;4976616;28;20026;-77
2022/06/25 09:40:57;;;;;;;4.03;3.55;;;33.40;99.90;;;;;;4976019;28;20026;-77
2022/06/25 09:43:36;;;;;;;3.67;3.38;;;32.90;99.90;;;;;;4976389;28;20050;-77
2022/06/25 09:46:04;;;;;;;4.13;3.30;;;32.90;99.90;;;;;;4968165;28;20434;-77
2022/06/25 09:48:32;;;;;;;3.83;3.35;;;32.70;99.90;;;;;;4972159;28;20035;-78
2022/06/25 09:51:20;;;;;;;3.47;3.08;;;32.10;99.90;;;;;;4977044;28;20575;-76
2022/06/25 09:53:59;;;;;;;6.23;3.10;;;33.40;99.90;;;;;;4980006;28;20035;-77
2022/06/25 09:56:27;;;;;;;3.78;3.15;;;32.60;99.90;;;;;;4975179;28;20269;-77
2022/06/25 09:58:54;;;;;;;3.25;2.00;;;31.50;99.90;;;;;;4975136;28;20033;-77
2022/06/25 10:01:23;;;;;;;4.18;1.20;;;30.20;99.90;;;;;;4973966;28;20110;-77
2022/06/25 10:03:49;;;;;;;3.00;1.23;;;28.90;99.90;;;;;;4975699;28;20103;-77
2022/06/25 10:06:20;;;;;;;2.50;1.15;;;27.90;99.90;;;;;;4974862;28;20058;-77
2022/06/25 10:08:51;;;;;;;3.05;1.10;;;27.00;99.90;;;;;;4975383;28;20035;-77
2022/06/25 10:11:26;;;;;;;2.75;0.95;;;26.50;99.90;;;;;;4974104;28;20126;-76
2022/06/25 10:13:52;;;;;;;2.92;1.33;;;26.30;99.90;;;;;;4975026;28;20031;-77
2022/06/25 10:16:23;;;;;;;4.78;1.30;;;26.00;99.90;;;;;;4974806;28;20046;-77
2022/06/25 10:18:49;;;;;;;1.85;1.33;;;26.00;99.90;;;;;;4981739;28;20117;-77
2022/06/25 10:21:15;;;;;;;2.92;1.25;;;25.30;99.90;;;;;;4994435;28;20516;-77
2022/06/25 10:23:42;;;;;;;3.42;1.15;;;24.70;99.90;;;;;;4994249;28;20450;-77
2022/06/25 10:26:09;;;;;;;5.15;1.85;;;25.20;99.90;;;;;;4979572;28;20031;-77
2022/06/25 10:28:35;;;;;;;4.03;1.50;;;25.20;99.90;;;;;;4974960;28;20019;-77
2022/06/25 10:31:06;;;;;;;4.60;1.40;;;25.00;99.90;;;;;;4977004;28;20114;-77
2022/06/25 10:33:59;;;;;;;3.25;1.25;;;24.60;99.90;;;;;;4979721;28;20545;-77
2022/06/25 10:36:43;;;;;;;6.07;1.58;;;24.10;99.90;;;;;;4969048;28;20026;-77
2022/06/25 10:39:27;;;;;;;5.07;1.50;;;24.30;99.90;;;;;;4955719;28;20034;-77
2022/06/25 10:45:30;;;;;;;5.30;1.70;;;24.90;99.90;;;;;;4975425;28;20038;-77
2022/06/25 10:47:57;;;;;;;2.78;1.52;;;24.90;99.90;;;;;;4975268;28;20401;-77
2022/06/25 10:50:23;;;;;;;2.88;1.60;;;25.60;99.90;;;;;;4974905;28;20025;-77
2022/06/25 10:53:05;;;;;;;2.65;1.50;;;26.50;99.90;;;;;;4972278;28;20114;-79
2022/06/25 10:55:41;;;;;;;4.15;2.72;;;28.90;99.90;;;;;;4972991;28;20763;-79
2022/06/25 10:58:24;;;;;;;2.67;2.47;;;33.10;99.90;;;;;;4975186;28;20114;-80
2022/06/25 11:00:58;;;;;;;4.25;1.85;;;34.30;99.90;;;;;;4974743;28;20356;-79
2022/06/25 11:03:27;;;;;;;3.13;1.63;;;36.10;99.90;;;;;;4974855;28;20061;-78
2022/06/25 11:05:53;;;;;;;3.95;1.70;;;35.70;99.90;;;;;;4962844;28;20158;-77
2022/06/25 11:08:18;;;;;;;3.88;2.20;;;35.80;99.90;;;;;;4958112;28;20027;-79
2022/06/25 11:10:44;;;;;;;2.42;1.92;;;35.40;99.90;;;;;;4975853;28;20023;-79
2022/06/25 11:13:10;;;;;;;4.75;2.30;;;34.90;99.90;;;;;;4974678;28;20037;-78
2022/06/25 11:15:43;;;;;;;2.85;1.95;;;35.20;99.90;;;;;;4976503;28;20109;-78
2022/06/25 11:18:11;;;;;;;4.05;1.80;;;34.90;99.90;;;;;;4975075;28;20042;-79
2022/06/25 11:20:38;;;;;;;3.85;1.42;;;32.80;99.90;;;;;;4971175;28;20089;-79
2022/06/25 11:23:04;;;;;;;2.88;1.50;;;34.10;99.90;;;;;;4969695;28;20089;-78
2022/06/25 11:28:47;;;;;;;4.00;1.77;;;32.10;99.90;;;;;;4973512;28;20050;-79
2022/06/25 11:31:14;;;;;;;4.25;1.83;;;31.70;99.90;;;;;;4975278;28;20026;-79
2022/06/25 11:33:40;;;;;;;2.65;1.60;;;31.20;99.90;;;;;;4980244;28;20057;-79
2022/06/25 11:36:10;;;;;;;3.40;1.63;;;31.10;99.90;;;;;;4983441;28;20094;-78
2022/06/25 11:38:36;;;;;;;3.83;1.77;;;31.70;99.90;;;;;;4977050;28;20023;-79
2022/06/25 11:41:03;;;;;;;3.72;1.42;;;32.40;99.90;;;;;;4977033;28;20023;-79
2022/06/25 11:43:30;;;;;;;3.80;1.48;;;32.50;99.90;;;;;;4978066;28;20035;-78
2022/06/25 11:45:58;;;;;;;5.10;1.60;;;32.90;99.90;;;;;;4978046;28;20033;-79
2022/06/25 11:48:34;;;;;;;3.65;1.60;;;32.90;99.90;;;;;;4975261;28;20077;-79
2022/06/25 11:51:02;;;;;;;5.28;2.00;;;32.00;99.90;;;;;;4976260;28;20038;-79
2022/06/25 11:53:28;;;;;;;5.43;1.90;;;32.40;99.90;;;;;;4961715;28;20114;-79
2022/06/25 11:55:58;;;;;;;3.72;1.52;;;32.60;99.90;;;;;;4971752;28;20459;-79
2022/06/25 11:58:26;;;;;;;5.30;2.00;;;32.80;99.90;;;;;;4967764;28;20061;-80
2022/06/25 12:00:55;;;;;;;6.20;1.90;;;32.50;99.90;;;;;;4972856;28;20027;-79
2022/06/25 12:03:24;;;;;;;4.00;2.17;;;33.00;99.90;;;;;;4974086;28;20023;-79
2022/06/25 12:05:50;;;;;;;5.72;2.22;;;32.80;99.90;;;;;;4967432;28;20027;-79
2022/06/25 12:08:16;;;;;;;5.50;2.20;;;33.40;99.90;;;;;;4984670;28;20624;-77
2022/06/25 12:10:42;;;;;;;6.13;2.38;;;32.90;99.90;;;;;;4977333;28;20042;-76
2022/06/25 12:13:09;;;;;;;5.85;1.77;;;33.20;99.90;;;;;;4984812;28;20046;-77
2022/06/25 12:15:35;;;;;;;6.50;2.03;;;32.90;99.90;;;;;;4973806;28;20023;-77
2022/06/25 12:18:04;;;;;;;7.10;2.00;;;32.60;99.90;;;;;;4979192;28;20030;-77
2022/06/25 12:20:30;;;;;;;8.30;2.97;;;31.90;99.90;;;;;;4992547;28;20390;-77
2022/06/25 12:22:57;;;;;;;9.82;2.70;;;31.60;99.90;;;;;;4974778;28;20471;-77
2022/06/25 12:25:25;;;;;;;4.47;1.73;;;31.60;99.90;;;;;;4973492;28;20062;-77
2022/06/25 12:27:51;;;;;;;4.05;2.17;;;31.10;99.90;;;;;;4973180;28;20551;-77
2022/06/25 12:30:25;;;;;;;8.07;2.20;;;31.00;99.90;;;;;;4964534;28;20692;-77
2022/06/25 12:32:52;;;;;;;6.03;2.63;;;30.30;99.90;;;;;;4963587;28;20047;-77
2022/06/25 12:35:23;;;;;;;5.80;2.22;;;30.70;99.90;;;;;;4986620;28;20019;-77
2022/06/25 12:38:05;;;;;;;4.07;2.00;;;31.00;99.90;;;;;;4973093;28;20023;-77
2022/06/25 12:40:48;;;;;;;4.93;2.30;;;30.80;99.90;;;;;;4973386;28;20548;-77
2022/06/25 12:43:15;;;;;;;5.80;1.80;;;30.40;99.90;;;;;;4987290;28;20101;-77
2022/06/25 12:45:46;;;;;;;8.73;2.33;;;30.50;99.90;;;;;;4959612;28;20022;-77
2022/06/25 12:48:13;;;;;;;5.85;2.03;;;30.70;99.90;;;;;;4973450;28;20027;-77
2022/06/25 12:50:40;;;;;;;8.88;2.00;;;30.90;99.90;;;;;;4961270;28;20406;-77
2022/06/25 12:53:11;;;;;;;5.43;2.25;;;30.60;99.90;;;;;;4973989;28;20145;-77
2022/06/25 12:55:38;;;;;;;6.57;2.70;;;30.70;99.90;;;;;;4972646;28;20043;-77